Time;durP1;ratioP1;P1;durP2;ratioP2;P2;SDS_P1;SDS_P2;PMS_P1;PMS_P2;Temp;Humidity;BMP_temperature;BMP_pressure;BME280_temperature;BME280_humidity;BME280_pressure;Samples;Min_cycle;Max_cycle;Signal;HPM_P1;HPM_P2
2022/09/26 00:00:15;;;;;;;;;;;;;;;12.21;65.47363;100883.7;;;;-75
2022/09/26 00:05:16;;;;;;;;;;;;;;;12.22;65.6084;100872;;;;-75
2022/09/26 00:10:14;;;;;;;;;;;;;;;12.2;65.94043;100858.1;;;;-75
2022/09/26 00:15:16;;;;;;;;;;;;;;;12.19;65.66211;100846.1;;;;-76
2022/09/26 00:18:27;;;;;;;4;1.2;;;;;;;;;;;;;-73
2022/09/26 00:20:14;;;;;;;;;;;;;;;12.2;65.92969;100830.9;;;;-74
2022/09/26 00:25:14;;;;;;;;;;;;;;;12.19;66.40918;100807.5;;;;-74
2022/09/26 00:30:15;;;;;;;;;;;;;;;12.17;66.79492;100806.5;;;;-74
2022/09/26 00:35:14;;;;;;;;;;;;;;;12.2;66.58789;100797.4;;;;-75
2022/09/26 00:40:15;;;;;;;;;;;;;;;12.2;66.3418;100788;;;;-75
2022/09/26 00:45:16;;;;;;;;;;;;;;;12.18;66.42773;100777.8;;;;-76
2022/09/26 00:48:29;;;;;;;4;1.4;;;;;;;;;;;;;-74
2022/09/26 00:50:17;;;;;;;;;;;;;;;12.2;65.92969;100764.8;;;;-74
2022/09/26 00:55:16;;;;;;;;;;;;;;;12.2;66.46484;100751.4;;;;-75
2022/09/26 01:00:16;;;;;;;;;;;;;;;12.2;66.54297;100738.2;;;;-75
2022/09/26 01:05:17;;;;;;;;;;;;;;;12.22;66.37988;100725.1;;;;-75
2022/09/26 01:10:15;;;;;;;;;;;;;;;12.2;68.07031;100713.3;;;;-74
2022/09/26 01:15:14;;;;;;;;;;;;;;;12.23;67.10449;100708;;;;-74
2022/09/26 01:18:30;;;;;;;3.4;1.2;;;;;;;;;;;;;-73
2022/09/26 01:20:24;;;;;;;;;;;;;;;12.23;67.21582;100694.1;;;;-73
2022/09/26 01:25:19;;;;;;;;;;;;;;;12.23;66.94824;100679.6;;;;-74
2022/09/26 01:30:16;;;;;;;;;;;;;;;12.23;67.66211;100671.6;;;;-74
2022/09/26 01:35:18;;;;;;;;;;;;;;;12.21;67.95996;100663.4;;;;-73
2022/09/26 01:40:24;;;;;;;;;;;;;;;12.19;68.44824;100651.7;;;;-78
2022/09/26 01:45:18;;;;;;;;;;;;;;;12.21;68.39551;100642.1;;;;-70
2022/09/26 01:48:33;;;;;;;2.1;1;;;;;;;;;;;;;-71
2022/09/26 01:50:18;;;;;;;;;;;;;;;12.22;68.9209;100625.3;;;;-71
2022/09/26 01:55:17;;;;;;;;;;;;;;;12.22;68.54102;100626.4;;;;-70
2022/09/26 02:00:15;;;;;;;;;;;;;;;12.19;68.68359;100611.6;;;;-70
2022/09/26 02:05:19;;;;;;;;;;;;;;;12.2;68.47168;100595.9;;;;-70
2022/09/26 02:10:18;;;;;;;;;;;;;;;12.19;69.38379;100586;;;;-72
2022/09/26 02:15:17;;;;;;;;;;;;;;;12.2;68.53906;100575.1;;;;-72
2022/09/26 02:18:34;;;;;;;3.5;1.2;;;;;;;;;;;;;-74
2022/09/26 02:20:18;;;;;;;;;;;;;;;12.19;69.43945;100572.4;;;;-74
2022/09/26 02:25:14;;;;;;;;;;;;;;;12.19;69.46191;100554.5;;;;-74
2022/09/26 02:30:15;;;;;;;;;;;;;;;12.18;69.19336;100545.8;;;;-74
2022/09/26 02:40:14;;;;;;;;;;;;;;;12.2;70.88965;100522.5;;;;-74
2022/09/26 02:45:24;;;;;;;;;;;;;;;12.19;69.87402;100514;;;;-75
2022/09/26 02:48:40;;;;;;;4.1;1.3;;;;;;;;;;;;;-74
2022/09/26 02:50:31;;;;;;;;;;;;;;;12.19;70.7666;100505.2;;;;-74
2022/09/26 02:55:23;;;;;;;;;;;;;;;12.19;70.1084;100492.9;;;;-75
2022/09/26 03:00:17;;;;;;;;;;;;;;;12.17;70.90723;100481.7;;;;-76
2022/09/26 03:05:18;;;;;;;;;;;;;;;12.18;70.99805;100470.9;;;;-75
2022/09/26 03:10:15;;;;;;;;;;;;;;;12.2;70.56641;100463;;;;-74
2022/09/26 03:15:15;;;;;;;;;;;;;;;12.2;70.93457;100452.1;;;;-73
2022/09/26 03:18:37;;;;;;;5.6;1.4;;;;;;;;;;;;;-75
2022/09/26 03:20:15;;;;;;;;;;;;;;;12.21;70.69043;100431.9;;;;-73
2022/09/26 03:25:17;;;;;;;;;;;;;;;12.2;70.95605;100425.1;;;;-74
2022/09/26 03:30:15;;;;;;;;;;;;;;;12.18;71.43262;100412.7;;;;-76
2022/09/26 03:35:14;;;;;;;;;;;;;;;12.17;71.60742;100396.3;;;;-74
2022/09/26 03:40:15;;;;;;;;;;;;;;;12.18;71.33008;100391.7;;;;-75
2022/09/26 03:45:19;;;;;;;;;;;;;;;12.19;70.95508;100378.6;;;;-75
2022/09/26 03:48:37;;;;;;;5.5;1.4;;;;;;;;;;;;;-76
2022/09/26 03:50:16;;;;;;;;;;;;;;;12.17;71.26367;100369.3;;;;-75
2022/09/26 03:55:14;;;;;;;;;;;;;;;12.16;71.23828;100359.1;;;;-74
2022/09/26 04:00:15;;;;;;;;;;;;;;;12.15;71.19434;100348.4;;;;-75
2022/09/26 04:05:14;;;;;;;;;;;;;;;12.14;71.11426;100334.6;;;;-75
2022/09/26 04:10:15;;;;;;;;;;;;;;;12.11;71.56641;100321.5;;;;-75
2022/09/26 04:15:14;;;;;;;;;;;;;;;12.11;71.41992;100308.4;;;;-73
2022/09/26 04:18:37;;;;;;;4;1.5;;;;;;;;;;;;;-76
2022/09/26 04:20:14;;;;;;;;;;;;;;;12.08;71.32715;100305.3;;;;-74
2022/09/26 04:25:15;;;;;;;;;;;;;;;12.05;71.51172;100296.9;;;;-74
2022/09/26 04:30:15;;;;;;;;;;;;;;;12.07;71.44629;100284.5;;;;-74
2022/09/26 04:35:15;;;;;;;;;;;;;;;12.02;71.81934;100271.6;;;;-74
2022/09/26 04:40:17;;;;;;;;;;;;;;;12.01;71.50391;100264.5;;;;-74
2022/09/26 04:45:15;;;;;;;;;;;;;;;12;72.15918;100257.8;;;;-73
2022/09/26 04:48:38;;;;;;;5.7;1.6;;;;;;;;;;;;;-75
2022/09/26 04:50:14;;;;;;;;;;;;;;;11.94;72.05078;100236.8;;;;-75
2022/09/26 04:55:14;;;;;;;;;;;;;;;11.92;71.68945;100219.2;;;;-74
2022/09/26 05:00:17;;;;;;;;;;;;;;;11.9;71.99805;100212.1;;;;-76
2022/09/26 05:05:14;;;;;;;;;;;;;;;11.87;71.97168;100203.7;;;;-75
2022/09/26 05:10:15;;;;;;;;;;;;;;;11.87;72.06055;100197.5;;;;-74
2022/09/26 05:15:14;;;;;;;;;;;;;;;11.85;71.93555;100172.2;;;;-75
2022/09/26 05:18:40;;;;;;;4;1.6;;;;;;;;;;;;;-75
2022/09/26 05:20:14;;;;;;;;;;;;;;;11.83;71.80859;100165.6;;;;-75
2022/09/26 05:30:16;;;;;;;;;;;;;;;11.81;71.81543;100147.5;;;;-75
2022/09/26 05:35:14;;;;;;;;;;;;;;;11.8;71.59277;100131.7;;;;-75
2022/09/26 05:45:14;;;;;;;;;;;;;;;11.79;71.9707;100113.1;;;;-75
2022/09/26 05:48:44;;;;;;;4;1.7;;;;;;;;;;;;;-75
2022/09/26 05:50:14;;;;;;;;;;;;;;;11.77;71.87598;100106.1;;;;-75
2022/09/26 05:55:20;;;;;;;;;;;;;;;11.76;71.9873;100093.3;;;;-75
2022/09/26 06:00:17;;;;;;;;;;;;;;;11.78;71.60059;100094.4;;;;-73
2022/09/26 06:05:14;;;;;;;;;;;;;;;11.77;72.45605;100077.6;;;;-75
2022/09/26 06:10:15;;;;;;;;;;;;;;;11.77;71.7998;100082.1;;;;-76
2022/09/26 06:15:14;;;;;;;;;;;;;;;11.77;72.12207;100073.1;;;;-78
2022/09/26 06:18:45;;;;;;;6.2;1.6;;;;;;;;;;;;;-74
2022/09/26 06:20:15;;;;;;;;;;;;;;;11.78;71.96777;100072.2;;;;-76
2022/09/26 06:25:14;;;;;;;;;;;;;;;11.78;72.32324;100067.9;;;;-75
2022/09/26 06:30:15;;;;;;;;;;;;;;;11.8;72.45996;100059.3;;;;-74
2022/09/26 06:35:14;;;;;;;;;;;;;;;11.79;72.14746;100066.9;;;;-74
2022/09/26 06:40:14;;;;;;;;;;;;;;;11.83;72.52148;100043.3;;;;-75
2022/09/26 06:45:15;;;;;;;;;;;;;;;11.81;72.56348;100033.9;;;;-76
2022/09/26 06:48:46;;;;;;;3.7;1.5;;;;;;;;;;;;;-76
2022/09/26 06:50:15;;;;;;;;;;;;;;;11.8;72.74902;100014;;;;-74
2022/09/26 06:55:14;;;;;;;;;;;;;;;11.77;73.41211;100007.2;;;;-75
2022/09/26 07:00:15;;;;;;;;;;;;;;;11.77;73.33398;100000.9;;;;-75
2022/09/26 07:05:15;;;;;;;;;;;;;;;11.77;72.84473;99994.16;;;;-75
2022/09/26 07:10:14;;;;;;;;;;;;;;;11.79;72.95898;99980.4;;;;-76
2022/09/26 07:15:16;;;;;;;;;;;;;;;11.82;72.93066;99968.02;;;;-74
2022/09/26 07:18:44;;;;;;;4.3;1.7;;;;;;;;;;;;;-74
2022/09/26 07:20:15;;;;;;;;;;;;;;;11.87;72.7832;99967.09;;;;-75
2022/09/26 07:25:14;;;;;;;;;;;;;;;11.89;73.43164;99969.27;;;;-75
2022/09/26 07:30:15;;;;;;;;;;;;;;;11.88;73.77344;99954.62;;;;-76
2022/09/26 07:35:15;;;;;;;;;;;;;;;11.89;74.42285;99945.56;;;;-76
2022/09/26 07:40:14;;;;;;;;;;;;;;;11.87;74.0293;99938.59;;;;-75
2022/09/26 07:45:14;;;;;;;;;;;;;;;11.87;74.31641;99932.7;;;;-75
2022/09/26 07:50:15;;;;;;;;;;;;;;;11.84;74.68066;99922.83;;;;-75
2022/09/26 07:55:15;;;;;;;;;;;;;;;11.82;75.4873;99920.82;;;;-74
2022/09/26 08:00:16;;;;;;;;;;;;;;;11.82;76.22168;99916.61;;;;-75
2022/09/26 08:05:16;;;;;;;;;;;;;;;11.82;75.86621;99910.99;;;;-75
2022/09/26 08:10:18;;;;;;;;;;;;;;;11.82;76.36621;99893.95;;;;-74
2022/09/26 08:15:15;;;;;;;;;;;;;;;11.82;76.91113;99890.98;;;;-76
2022/09/26 08:18:46;;;;;;;5.3;2.3;;;;;;;;;;;;;-78
2022/09/26 08:20:14;;;;;;;;;;;;;;;11.88;76.9082;99896.08;;;;-75
2022/09/26 08:25:14;;;;;;;;;;;;;;;11.92;76.87305;99881.13;;;;-70
2022/09/26 08:30:14;;;;;;;;;;;;;;;11.92;77.11523;99874.98;;;;-71
2022/09/26 08:35:17;;;;;;;;;;;;;;;11.89;76.78711;99873.96;;;;-72
2022/09/26 08:40:14;;;;;;;;;;;;;;;11.9;77.1123;99868.25;;;;-77
2022/09/26 08:48:53;;;;;;;5.6;2.2;;;;;;;;;;;;;-74
2022/09/26 08:50:21;;;;;;;;;;;;;;;11.89;77.52148;99860.2;;;;-74
2022/09/26 08:55:18;;;;;;;;;;;;;;;11.95;77.75586;99854.52;;;;-75
2022/09/26 09:00:18;;;;;;;;;;;;;;;12.04;77.57031;99849.45;;;;-75
2022/09/26 09:05:18;;;;;;;;;;;;;;;12.18;78.00684;99831.85;;;;-75
2022/09/26 09:10:18;;;;;;;;;;;;;;;12.22;78.32422;99821.32;;;;-74
2022/09/26 09:15:23;;;;;;;;;;;;;;;12.28;78.02246;99811.13;;;;-75
2022/09/26 09:18:51;;;;;;;5.2;2.4;;;;;;;;;;;;;-75
2022/09/26 09:20:19;;;;;;;;;;;;;;;12.32;78.54199;99817.93;;;;-76
2022/09/26 09:25:18;;;;;;;;;;;;;;;12.34;78.95898;99809.8;;;;-75
2022/09/26 09:30:21;;;;;;;;;;;;;;;12.39;78.31055;99821.84;;;;-76
2022/09/26 09:35:18;;;;;;;;;;;;;;;12.4;78.55762;99829.34;;;;-75
2022/09/26 09:40:17;;;;;;;;;;;;;;;12.39;78.71094;99826.38;;;;-77
2022/09/26 09:45:17;;;;;;;;;;;;;;;12.4;79.11328;99825.38;;;;-76
2022/09/26 09:48:49;;;;;;;5.3;2.7;;;;;;;;;;;;;-75
2022/09/26 09:50:17;;;;;;;;;;;;;;;12.39;79.7666;99814.39;;;;-75
2022/09/26 09:55:19;;;;;;;;;;;;;;;12.37;79.70801;99819.42;;;;-76
2022/09/26 10:00:21;;;;;;;;;;;;;;;12.42;80.19434;99826.42;;;;-75
2022/09/26 10:05:25;;;;;;;;;;;;;;;12.41;80.06836;99824.75;;;;-75
2022/09/26 10:10:19;;;;;;;;;;;;;;;12.42;79.57227;99807.78;;;;-76
2022/09/26 10:15:21;;;;;;;;;;;;;;;12.4;80.37988;99800.5;;;;-75
2022/09/26 10:19:02;;;;;;;5.3;2.6;;;;;;;;;;;;;-75
2022/09/26 10:20:29;;;;;;;;;;;;;;;12.44;79.6875;99803.75;;;;-76
2022/09/26 10:25:19;;;;;;;;;;;;;;;12.45;80.04395;99788.55;;;;-77
2022/09/26 10:30:32;;;;;;;;;;;;;;;12.44;79.70898;99780.22;;;;-74
2022/09/26 10:35:23;;;;;;;;;;;;;;;12.46;79.83398;99777.53;;;;-75
2022/09/26 10:45:18;;;;;;;;;;;;;;;12.49;80.38574;99761.92;;;;-77
2022/09/26 10:48:52;;;;;;;2.9;1.9;;;;;;;;;;;;;-73
2022/09/26 10:50:16;;;;;;;;;;;;;;;12.52;80.19043;99769.09;;;;-75
2022/09/26 10:55:17;;;;;;;;;;;;;;;12.59;79.0459;99761.02;;;;-77
2022/09/26 11:00:20;;;;;;;;;;;;;;;12.83;81.16992;99754.37;;;;-75
2022/09/26 11:10:16;;;;;;;;;;;;;;;13.46;82.66602;99760.88;;;;-76
2022/09/26 11:15:16;;;;;;;;;;;;;;;13.59;82.30176;99756.3;;;;-76
2022/09/26 11:18:55;;;;;;;4.3;2.4;;;;;;;;;;;;;-75
2022/09/26 11:20:16;;;;;;;;;;;;;;;13.66;82.24707;99752.6;;;;-74
2022/09/26 11:25:17;;;;;;;;;;;;;;;13.69;81.9082;99758.11;;;;-74
2022/09/26 11:30:18;;;;;;;;;;;;;;;13.77;82.22461;99756.66;;;;-75
2022/09/26 11:35:17;;;;;;;;;;;;;;;13.89;82.92676;99750.74;;;;-78
2022/09/26 11:40:25;;;;;;;;;;;;;;;14.03;82.12695;99757.67;;;;-75
2022/09/26 11:45:18;;;;;;;;;;;;;;;14.09;82.07227;99751.31;;;;-75
2022/09/26 11:49:09;;;;;;;5.6;2.6;;;;;;;;;;;;;-75
2022/09/26 11:50:24;;;;;;;;;;;;;;;14.13;82.15723;99741.24;;;;-76
2022/09/26 11:55:20;;;;;;;;;;;;;;;14.18;81.76367;99735.05;;;;-76
2022/09/26 12:00:23;;;;;;;;;;;;;;;14.26;82.03613;99742.11;;;;-76
2022/09/26 12:05:24;;;;;;;;;;;;;;;14.31;81.45508;99739.25;;;;-76
2022/09/26 12:10:25;;;;;;;;;;;;;;;14.29;81.0498;99741.8;;;;-77
2022/09/26 12:15:20;;;;;;;;;;;;;;;14.35;80.92578;99736.48;;;;-76
2022/09/26 12:19:01;;;;;;;6.4;2.9;;;;;;;;;;;;;-77
2022/09/26 12:20:24;;;;;;;;;;;;;;;14.42;80.09082;99734.12;;;;-78
2022/09/26 12:25:29;;;;;;;;;;;;;;;14.52;80.74512;99723.42;;;;-76
2022/09/26 12:30:17;;;;;;;;;;;;;;;14.56;80.35156;99718.43;;;;-77
2022/09/26 12:35:21;;;;;;;;;;;;;;;14.58;81.125;99711.13;;;;-77
2022/09/26 12:40:21;;;;;;;;;;;;;;;14.61;80.92969;99703.19;;;;-76
2022/09/26 12:45:28;;;;;;;;;;;;;;;14.6;79.03809;99718.52;;;;-76
2022/09/26 12:49:05;;;;;;;5.5;2.2;;;;;;;;;;;;;-76
2022/09/26 12:50:22;;;;;;;;;;;;;;;14.58;78.56738;99714.62;;;;-76
2022/09/26 12:55:24;;;;;;;;;;;;;;;14.47;77.3291;99705.39;;;;-75
2022/09/26 13:00:20;;;;;;;;;;;;;;;14.33;77.71777;99706.13;;;;-77
2022/09/26 13:05:26;;;;;;;;;;;;;;;14.25;77.16797;99697.39;;;;-76
2022/09/26 13:10:20;;;;;;;;;;;;;;;14.18;77.75977;99691.48;;;;-75
2022/09/26 13:15:25;;;;;;;;;;;;;;;14.18;78.09473;99678.96;;;;-78
2022/09/26 13:19:01;;;;;;;8.4;1.9;;;;;;;;;;;;;-76
2022/09/26 13:20:20;;;;;;;;;;;;;;;14.24;78.09277;99682.84;;;;-77
2022/09/26 13:25:20;;;;;;;;;;;;;;;14.31;77.99414;99685.37;;;;-78
2022/09/26 13:30:15;;;;;;;;;;;;;;;14.36;79.06445;99676.5;;;;-77
2022/09/26 13:35:24;;;;;;;;;;;;;;;14.41;77.75391;99676.5;;;;-77
2022/09/26 13:40:21;;;;;;;;;;;;;;;14.44;78.31836;99689.5;;;;-76
2022/09/26 13:45:25;;;;;;;;;;;;;;;14.4;78.53516;99685.78;;;;-76
2022/09/26 13:49:16;;;;;;;8.7;1.9;;;;;;;;;;;;;-77
2022/09/26 13:50:22;;;;;;;;;;;;;;;14.36;77.28906;99687.92;;;;-79
2022/09/26 13:55:18;;;;;;;;;;;;;;;14.39;76.69043;99678.08;;;;-77
2022/09/26 14:00:33;;;;;;;;;;;;;;;14.49;76.8418;99672.06;;;;-77
2022/09/26 14:05:25;;;;;;;;;;;;;;;14.65;77.25977;99669.36;;;;-77
2022/09/26 14:10:16;;;;;;;;;;;;;;;14.76;77.14648;99671.09;;;;-77
2022/09/26 14:15:22;;;;;;;;;;;;;;;14.84;76.86914;99664.93;;;;-78
2022/09/26 14:19:06;;;;;;;7.7;1.6;;;;;;;;;;;;;-77
2022/09/26 14:20:19;;;;;;;;;;;;;;;14.9;76.49805;99666.71;;;;-76
2022/09/26 14:25:24;;;;;;;;;;;;;;;14.98;76.0752;99659.84;;;;-76
2022/09/26 14:30:26;;;;;;;;;;;;;;;15.08;75.82422;99652.19;;;;-76
2022/09/26 14:35:23;;;;;;;;;;;;;;;15.18;75.11328;99647.03;;;;-77
2022/09/26 14:40:24;;;;;;;;;;;;;;;15.3;75.68359;99649.31;;;;-75
2022/09/26 14:45:21;;;;;;;;;;;;;;;15.4;75.17285;99640.88;;;;-73
2022/09/26 14:49:05;;;;;;;9.7;1.5;;;;;;;;;;;;;-76
2022/09/26 14:50:18;;;;;;;;;;;;;;;15.43;74.7627;99638.28;;;;-75
2022/09/26 14:55:18;;;;;;;;;;;;;;;15.37;74.47363;99638.23;;;;-76
2022/09/26 15:00:25;;;;;;;;;;;;;;;15.27;73.62793;99645.73;;;;-76
2022/09/26 15:05:26;;;;;;;;;;;;;;;15.11;72.89551;99648.03;;;;-76
2022/09/26 15:10:21;;;;;;;;;;;;;;;14.92;72.42578;99667.34;;;;-77
2022/09/26 15:15:20;;;;;;;;;;;;;;;14.7;72.76074;99660.91;;;;-76
2022/09/26 15:19:07;;;;;;;6.9;1.4;;;;;;;;;;;;;-77
2022/09/26 15:20:17;;;;;;;;;;;;;;;14.59;72.85352;99657.87;;;;-77
2022/09/26 15:25:21;;;;;;;;;;;;;;;14.5;72.8623;99648.94;;;;-78
2022/09/26 15:30:21;;;;;;;;;;;;;;;14.42;73.0498;99645.18;;;;-78
2022/09/26 15:35:16;;;;;;;;;;;;;;;14.33;73.0127;99637.07;;;;-77
2022/09/26 15:40:19;;;;;;;;;;;;;;;14.27;72.96875;99634.75;;;;-77
2022/09/26 15:45:26;;;;;;;;;;;;;;;14.22;73.08398;99627.66;;;;-76
2022/09/26 15:49:14;;;;;;;7.3;1.2;;;;;;;;;;;;;-79
2022/09/26 15:50:16;;;;;;;;;;;;;;;14.17;73.04102;99643.78;;;;-78
2022/09/26 15:55:18;;;;;;;;;;;;;;;14.08;73.07129;99643.31;;;;-78
2022/09/26 16:00:19;;;;;;;;;;;;;;;14;73.06836;99635.21;;;;-76
2022/09/26 16:05:14;;;;;;;;;;;;;;;13.92;73.03418;99628.11;;;;-78
2022/09/26 16:10:27;;;;;;;;;;;;;;;13.94;72.65918;99626.05;;;;-77
2022/09/26 16:15:18;;;;;;;;;;;;;;;14.03;72.30371;99627.84;;;;-75
2022/09/26 16:19:26;;;;;;;5.4;1.2;;;;;;;;;;;;;-77
2022/09/26 16:20:28;;;;;;;;;;;;;;;14.12;72.28516;99635.7;;;;-76
2022/09/26 16:25:46;;;;;;;;;;;;;;;14.13;72.12988;99641.5;;;;-78
2022/09/26 16:30:33;;;;;;;;;;;;;;;14.1;72.28027;99645.73;;;;-77
2022/09/26 16:35:20;;;;;;;;;;;;;;;14.05;72.23926;99638.59;;;;-75
2022/09/26 16:40:21;;;;;;;;;;;;;;;13.97;72.46191;99639.33;;;;-76
2022/09/26 16:45:17;;;;;;;;;;;;;;;13.88;72.32227;99641.88;;;;-76
2022/09/26 16:49:21;;;;;;;6.2;1.3;;;;;;;;;;;;;-77
2022/09/26 16:50:28;;;;;;;;;;;;;;;13.78;71.75879;99644.55;;;;-77
2022/09/26 16:55:15;;;;;;;;;;;;;;;13.69;71.57617;99648.7;;;;-75
2022/09/26 17:05:21;;;;;;;;;;;;;;;13.52;72.47656;99654.73;;;;-77
2022/09/26 17:10:14;;;;;;;;;;;;;;;13.41;71.99902;99663.95;;;;-77
2022/09/26 17:15:20;;;;;;;;;;;;;;;13.31;71.78223;99662.58;;;;-78
2022/09/26 17:19:14;;;;;;;7.2;1.2;;;;;;;;;;;;;-77
2022/09/26 17:20:18;;;;;;;;;;;;;;;13.22;71.91406;99667.08;;;;-77
2022/09/26 17:25:17;;;;;;;;;;;;;;;13.14;72.22363;99666.09;;;;-76
2022/09/26 17:30:18;;;;;;;;;;;;;;;13.07;72.44727;99668.83;;;;-78
2022/09/26 17:35:16;;;;;;;;;;;;;;;12.99;72.44531;99668.78;;;;-76
2022/09/26 17:40:22;;;;;;;;;;;;;;;12.92;72.4668;99670.45;;;;-78
2022/09/26 17:45:16;;;;;;;;;;;;;;;12.85;72.7002;99666.75;;;;-76
2022/09/26 17:49:16;;;;;;;4.7;1.1;;;;;;;;;;;;;-76
2022/09/26 17:50:20;;;;;;;;;;;;;;;12.79;72.75781;99664.07;;;;-76
2022/09/26 17:55:14;;;;;;;;;;;;;;;12.71;72.58887;99661.93;;;;-75
2022/09/26 18:00:18;;;;;;;;;;;;;;;12.63;72.84375;99657.09;;;;-75
2022/09/26 18:05:18;;;;;;;;;;;;;;;12.56;72.67578;99658.95;;;;-76
2022/09/26 18:10:19;;;;;;;;;;;;;;;12.49;72.71973;99664.58;;;;-75
2022/09/26 18:15:18;;;;;;;;;;;;;;;12.41;72.52734;99664.69;;;;-76
2022/09/26 18:19:15;;;;;;;3;0.9;;;;;;;;;;;;;-75
2022/09/26 18:20:15;;;;;;;;;;;;;;;12.36;72.75391;99674.41;;;;-75
2022/09/26 18:25:17;;;;;;;;;;;;;;;12.32;72.93555;99687.93;;;;-74
2022/09/26 18:30:17;;;;;;;;;;;;;;;12.25;72.9248;99716.28;;;;-76
2022/09/26 18:35:17;;;;;;;;;;;;;;;12.19;73.09277;99718.41;;;;-77
2022/09/26 18:40:16;;;;;;;;;;;;;;;12.14;73.81836;99723.85;;;;-75
2022/09/26 18:45:16;;;;;;;;;;;;;;;12.1;73.37793;99726.28;;;;-76
2022/09/26 18:49:16;;;;;;;4.1;1;;;;;;;;;;;;;-75
2022/09/26 18:50:21;;;;;;;;;;;;;;;12.05;74.14941;99736.48;;;;-74
2022/09/26 19:00:14;;;;;;;;;;;;;;;11.99;73.72559;99749.22;;;;-76
2022/09/26 19:05:17;;;;;;;;;;;;;;;11.94;73.61914;99751.83;;;;-76
2022/09/26 19:10:17;;;;;;;;;;;;;;;11.88;73.69531;99755.02;;;;-76
2022/09/26 19:15:18;;;;;;;;;;;;;;;11.83;73.82129;99763.57;;;;-76
2022/09/26 19:19:17;;;;;;;3.3;0.9;;;;;;;;;;;;;-77
2022/09/26 19:20:14;;;;;;;;;;;;;;;11.79;74.07227;99765.73;;;;-77
2022/09/26 19:25:15;;;;;;;;;;;;;;;11.75;74.23145;99763.05;;;;-75
2022/09/26 19:30:16;;;;;;;;;;;;;;;11.69;74.36523;99764.13;;;;-77
2022/09/26 19:35:18;;;;;;;;;;;;;;;11.63;74.10059;99760.86;;;;-78
2022/09/26 19:40:18;;;;;;;;;;;;;;;11.61;74.27148;99762.93;;;;-77
2022/09/26 19:45:15;;;;;;;;;;;;;;;11.58;73.75781;99772.74;;;;-80
2022/09/26 19:49:21;;;;;;;3.8;0.6;;;;;;;;;;;;;-75
2022/09/26 19:50:18;;;;;;;;;;;;;;;11.53;73.80469;99772.34;;;;-76
2022/09/26 19:55:23;;;;;;;;;;;;;;;11.51;74.13477;99763.97;;;;-78
2022/09/26 20:00:17;;;;;;;;;;;;;;;11.46;73.53613;99755.09;;;;-77
2022/09/26 20:05:20;;;;;;;;;;;;;;;11.45;73.59082;99751.14;;;;-77
2022/09/26 20:10:17;;;;;;;;;;;;;;;11.42;73.55273;99752.59;;;;-75
2022/09/26 20:15:15;;;;;;;;;;;;;;;11.41;73.39551;99753.92;;;;-77
2022/09/26 20:19:20;;;;;;;2.9;0.7;;;;;;;;;;;;;-78
2022/09/26 20:20:14;;;;;;;;;;;;;;;11.37;73.69043;99751.81;;;;-76
2022/09/26 20:25:16;;;;;;;;;;;;;;;11.35;73.50879;99746.5;;;;-77
2022/09/26 20:35:16;;;;;;;;;;;;;;;11.28;73.50684;99743.36;;;;-77
2022/09/26 20:40:16;;;;;;;;;;;;;;;11.26;73.49121;99736.8;;;;-72
2022/09/26 20:45:19;;;;;;;;;;;;;;;11.24;73.22168;99732.97;;;;-78
2022/09/26 20:49:22;;;;;;;3.1;0.7;;;;;;;;;;;;;-78
2022/09/26 20:50:17;;;;;;;;;;;;;;;11.22;73.37598;99732.86;;;;-77
2022/09/26 20:55:16;;;;;;;;;;;;;;;11.21;73.43945;99726.38;;;;-76
2022/09/26 21:00:17;;;;;;;;;;;;;;;11.15;73.43066;99719.68;;;;-77
2022/09/26 21:05:18;;;;;;;;;;;;;;;11.09;73.54199;99725.54;;;;-77
2022/09/26 21:10:25;;;;;;;;;;;;;;;11.05;73.70215;99723.77;;;;-76
2022/09/26 21:15:17;;;;;;;;;;;;;;;11.02;73.91992;99731.8;;;;-76
2022/09/26 21:19:23;;;;;;;1.8;0.4;;;;;;;;;;;;;-75
2022/09/26 21:20:16;;;;;;;;;;;;;;;11.02;74.04199;99738.08;;;;-77
2022/09/26 21:25:16;;;;;;;;;;;;;;;11;73.83691;99729.96;;;;-76
2022/09/26 21:30:16;;;;;;;;;;;;;;;11.02;73.81934;99734.77;;;;-76
2022/09/26 21:35:14;;;;;;;;;;;;;;;10.99;74.12402;99739;;;;-76
2022/09/26 21:40:19;;;;;;;;;;;;;;;10.97;74.16504;99738.11;;;;-76
2022/09/26 21:45:17;;;;;;;;;;;;;;;10.98;73.96777;99741.47;;;;-76
2022/09/26 21:49:23;;;;;;;1.9;0.5;;;;;;;;;;;;;-76
2022/09/26 21:50:14;;;;;;;;;;;;;;;10.96;74.47266;99745.23;;;;-76
2022/09/26 21:55:16;;;;;;;;;;;;;;;10.91;75.01074;99746.82;;;;-77
2022/09/26 22:00:14;;;;;;;;;;;;;;;10.91;74.91992;99742.97;;;;-76
2022/09/26 22:05:15;;;;;;;;;;;;;;;10.9;74.44141;99743.74;;;;-75
2022/09/26 22:10:14;;;;;;;;;;;;;;;10.88;74.49414;99741.17;;;;-71
2022/09/26 22:15:14;;;;;;;;;;;;;;;10.87;74.18066;99749.71;;;;-71
2022/09/26 22:19:26;;;;;;;3.2;0.5;;;;;;;;;;;;;-76
2022/09/26 22:20:14;;;;;;;;;;;;;;;10.85;74.25586;99747.3;;;;-75
2022/09/26 22:25:14;;;;;;;;;;;;;;;10.82;74.49609;99739.18;;;;-77
2022/09/26 22:30:15;;;;;;;;;;;;;;;10.79;74.77832;99728.31;;;;-77
2022/09/26 22:35:14;;;;;;;;;;;;;;;10.8;74.36914;99724.2;;;;-74
2022/09/26 22:40:14;;;;;;;;;;;;;;;10.75;74.63867;99727.02;;;;-79
2022/09/26 22:45:14;;;;;;;;;;;;;;;10.71;74.30957;99729.23;;;;-77
2022/09/26 22:49:25;;;;;;;2.1;0.5;;;;;;;;;;;;;-77
2022/09/26 22:50:14;;;;;;;;;;;;;;;10.68;74.24902;99734.66;;;;-75
2022/09/26 22:55:17;;;;;;;;;;;;;;;10.64;74.35352;99729.11;;;;-76
2022/09/26 23:00:15;;;;;;;;;;;;;;;10.63;74.34082;99728.61;;;;-76
2022/09/26 23:05:14;;;;;;;;;;;;;;;10.59;74.31152;99732.46;;;;-77
2022/09/26 23:10:20;;;;;;;;;;;;;;;10.6;74.01563;99738.98;;;;-77
2022/09/26 23:15:18;;;;;;;;;;;;;;;10.6;74.34668;99768.66;;;;-76
2022/09/26 23:19:26;;;;;;;3;0.4;;;;;;;;;;;;;-76
2022/09/26 23:20:14;;;;;;;;;;;;;;;10.57;74.90723;99752.63;;;;-76
2022/09/26 23:25:14;;;;;;;;;;;;;;;10.57;74.7959;99748.48;;;;-75
2022/09/26 23:30:14;;;;;;;;;;;;;;;10.56;74.96973;99746.02;;;;-76
2022/09/26 23:35:15;;;;;;;;;;;;;;;10.55;74.75977;99747.21;;;;-75
2022/09/26 23:40:15;;;;;;;;;;;;;;;10.52;74.76465;99744.5;;;;-77
2022/09/26 23:45:14;;;;;;;;;;;;;;;10.48;74.81348;99741.91;;;;-75
2022/09/26 23:49:27;;;;;;;2.8;0.4;;;;;;;;;;;;;-76
2022/09/26 23:50:14;;;;;;;;;;;;;;;10.42;74.36133;99743.06;;;;-77
2022/09/26 23:55:13;;;;;;;;;;;;;;;10.34;74.40137;99740.41;;;;-75
